Time;durP1;ratioP1;P1;durP2;ratioP2;P2;SDS_P1;SDS_P2;PMS_P1;PMS_P2;Temp;Humidity;BMP_temperature;BMP_pressure;BME280_temperature;BME280_humidity;BME280_pressure;Samples;Min_cycle;Max_cycle;Signal;HPM_P1;HPM_P2
2022/10/29 00:01:49;;;;;;;27.55;25.48;;;;;;;16.18;89.45;97464.44;5092282;28;20172;-50
2022/10/29 00:04:14;;;;;;;13.20;10.10;;;;;;;16.19;90.69;97465.22;5091796;28;20177;-51
2022/10/29 00:06:40;;;;;;;15.30;9.37;;;;;;;16.00;92.66;97459.41;5092381;28;20706;-57
2022/10/29 00:09:05;;;;;;;10.10;8.60;;;;;;;15.82;94.79;97469.50;5074420;28;20168;-50
2022/10/29 00:11:33;;;;;;;18.13;7.90;;;;;;;15.73;95.82;97469.88;5092447;28;20226;-53
2022/10/29 00:13:59;;;;;;;10.33;9.23;;;;;;;15.60;97.40;97469.44;5093003;28;20181;-57
2022/10/29 00:16:28;;;;;;;14.97;11.17;;;;;;;15.45;98.86;97471.78;5096575;28;20183;-54
2022/10/29 00:18:56;;;;;;;12.77;9.57;;;;;;;15.34;100.00;97470.84;5096046;28;20623;-53
2022/10/29 00:21:24;;;;;;;22.60;20.60;;;;;;;15.30;100.00;97465.25;5096221;28;20164;-52
2022/10/29 00:23:50;;;;;;;15.93;14.47;;;;;;;15.12;100.00;97464.66;5078120;28;20176;-53
2022/10/29 00:26:17;;;;;;;13.13;11.47;;;;;;;15.10;100.00;97462.25;5096230;28;20645;-53
2022/10/29 00:28:43;;;;;;;11.20;8.63;;;;;;;15.04;100.00;97446.56;5095894;28;20656;-56
2022/10/29 00:31:15;;;;;;;20.38;19.02;;;;;;;15.04;100.00;97447.38;5078063;28;20176;-57
2022/10/29 00:33:41;;;;;;;35.03;32.47;;;;;;;14.95;100.00;97446.94;5095961;28;20216;-56
2022/10/29 00:36:10;;;;;;;24.53;22.47;;;;;;;14.94;100.00;97445.34;5096099;28;20180;-58
2022/10/29 00:38:36;;;;;;;18.83;17.20;;;;;;;14.82;100.00;97460.44;5096075;28;20208;-56
2022/10/29 00:41:04;;;;;;;22.30;20.50;;;;;;;14.77;100.00;97462.19;5095885;28;20181;-58
2022/10/29 00:43:33;;;;;;;16.33;12.70;;;;;;;14.78;100.00;97461.16;5096170;28;20230;-54
2022/10/29 00:46:31;;;;;;;18.43;13.37;;;;;;;14.87;100.00;97457.91;5093077;28;20180;-57
2022/10/29 00:48:57;;;;;;;16.63;15.10;;;;;;;14.70;100.00;97459.69;5080314;28;20734;-56
2022/10/29 00:51:24;;;;;;;15.27;13.03;;;;;;;14.56;100.00;97451.25;5095969;28;20181;-57
2022/10/29 00:54:04;;;;;;;19.50;12.33;;;;;;;14.51;100.00;97442.44;5096135;28;20195;-55
2022/10/29 00:56:34;;;;;;;14.37;10.43;;;;;;;14.39;100.00;97444.31;5077650;28;20245;-55
2022/10/29 00:59:00;;;;;;;17.37;11.70;;;;;;;14.39;100.00;97446.94;5077236;28;20622;-59
2022/10/29 01:01:25;;;;;;;16.97;14.77;;;;;;;14.45;100.00;97446.81;5068031;28;20173;-57
2022/10/29 01:03:51;;;;;;;16.03;14.63;;;;;;;14.48;100.00;97454.28;5095293;28;20538;-58
2022/10/29 01:06:17;;;;;;;17.30;15.67;;;;;;;14.54;100.00;97457.81;5095958;28;20176;-57
2022/10/29 01:08:43;;;;;;;16.10;14.70;;;;;;;14.58;100.00;97456.31;5095144;28;20208;-56
2022/10/29 01:11:14;;;;;;;19.97;16.17;;;;;;;14.56;100.00;97453.91;5095443;28;20177;-59
2022/10/29 01:13:49;;;;;;;17.43;15.63;;;;;;;14.61;100.00;97450.53;5095377;28;20559;-56
2022/10/29 01:16:42;;;;;;;16.73;15.30;;;;;;;14.68;100.00;97440.66;5095622;28;20186;-54
2022/10/29 01:19:45;;;;;;;16.33;14.77;;;;;;;14.80;100.00;97444.06;5094312;28;20264;-57
2022/10/29 01:22:25;;;;;;;20.57;15.40;;;;;;;14.74;100.00;97436.28;5095163;28;20271;-56
2022/10/29 01:25:18;;;;;;;20.07;13.27;;;;;;;14.79;100.00;97439.81;5094863;28;20179;-55
2022/10/29 01:27:58;;;;;;;13.73;10.57;;;;;;;14.83;100.00;97437.47;5094721;28;20196;-53
2022/10/29 01:31:00;;;;;;;13.40;12.07;;;;;;;14.74;100.00;97434.44;5095023;28;20255;-57
2022/10/29 01:33:48;;;;;;;15.87;13.80;;;;;;;14.74;100.00;97431.00;5076634;28;20230;-56
2022/10/29 01:36:22;;;;;;;18.20;14.97;;;;;;;14.70;100.00;97424.59;5095273;28;20184;-57
2022/10/29 01:38:50;;;;;;;15.37;13.87;;;;;;;14.62;100.00;97425.78;5094659;28;20207;-57
2022/10/29 01:41:24;;;;;;;18.17;13.87;;;;;;;14.68;100.00;97419.56;5094878;28;20529;-57
2022/10/29 01:43:56;;;;;;;15.77;14.20;;;;;;;14.62;100.00;97428.41;5094833;28;20189;-57
2022/10/29 01:46:55;;;;;;;21.23;13.30;;;;;;;14.73;100.00;97422.28;5092494;28;20239;-58
2022/10/29 01:49:27;;;;;;;15.40;14.00;;;;;;;14.62;100.00;97417.84;5081971;28;20634;-58
2022/10/29 01:51:55;;;;;;;16.67;15.07;;;;;;;14.57;100.00;97423.84;5094800;28;20696;-56
2022/10/29 01:54:21;;;;;;;16.87;15.27;;;;;;;14.52;100.00;97415.84;5094830;28;20525;-58
2022/10/29 01:56:54;;;;;;;16.80;15.40;;;;;;;14.60;100.00;97406.72;5094244;28;20188;-58
2022/10/29 01:59:19;;;;;;;15.27;13.17;;;;;;;14.57;100.00;97408.00;5094909;28;20202;-58
2022/10/29 02:02:21;;;;;;;26.87;24.63;;;;;;;14.42;100.00;97401.66;5075970;28;20663;-58
2022/10/29 02:04:52;;;;;;;46.20;42.60;;;;;;;14.40;100.00;97404.53;5094261;28;20218;-59
2022/10/29 02:07:49;;;;;;;34.00;31.23;;;;;;;14.37;100.00;97399.75;5094190;28;20212;-57
2022/10/29 02:10:31;;;;;;;28.40;25.70;;;;;;;14.31;100.00;97408.56;5094537;28;20209;-55
2022/10/29 02:12:57;;;;;;;24.67;22.20;;;;;;;14.30;100.00;97403.50;5094192;28;20228;-57
2022/10/29 02:15:40;;;;;;;26.80;24.90;;;;;;;14.23;100.00;97401.00;5093940;28;20273;-57
2022/10/29 02:18:07;;;;;;;26.10;24.03;;;;;;;14.15;100.00;97390.84;5076676;28;20200;-58
2022/10/29 02:20:33;;;;;;;22.03;19.70;;;;;;;14.23;100.00;97389.66;5094259;28;20176;-52
2022/10/29 02:22:59;;;;;;;15.47;13.83;;;;;;;14.23;100.00;97385.19;5093953;28;20528;-57
2022/10/29 02:25:25;;;;;;;15.10;13.47;;;;;;;14.19;100.00;97383.25;5093538;28;20204;-57
2022/10/29 02:27:50;;;;;;;15.17;12.13;;;;;;;14.28;100.00;97374.72;5093818;28;20301;-57
2022/10/29 02:30:16;;;;;;;14.40;11.67;;;;;;;14.33;100.00;97379.28;5094298;28;20222;-59
2022/10/29 02:32:42;;;;;;;16.10;10.97;;;;;;;14.33;100.00;97376.66;5094042;28;20196;-58
2022/10/29 02:35:08;;;;;;;14.37;13.03;;;;;;;14.27;100.00;97373.13;5093811;28;20656;-57
2022/10/29 02:37:33;;;;;;;14.13;11.97;;;;;;;14.25;100.00;97377.03;5092983;28;20283;-56
2022/10/29 02:39:59;;;;;;;14.90;12.93;;;;;;;14.13;100.00;97374.44;5093329;28;20242;-58
2022/10/29 02:42:24;;;;;;;20.03;13.33;;;;;;;14.28;100.00;97377.38;5093517;28;20188;-59
2022/10/29 02:44:50;;;;;;;13.50;12.10;;;;;;;14.24;100.00;97375.44;5093377;28;20197;-59
2022/10/29 02:47:16;;;;;;;16.57;13.37;;;;;;;14.39;100.00;97381.81;5083203;28;20239;-58
2022/10/29 02:49:41;;;;;;;12.83;10.47;;;;;;;14.36;100.00;97373.56;5093256;28;20272;-59
2022/10/29 02:52:07;;;;;;;16.17;14.67;;;;;;;14.27;100.00;97365.22;5093604;28;20287;-58
2022/10/29 02:54:32;;;;;;;22.60;20.97;;;;;;;14.31;100.00;97365.56;5093575;28;20180;-58
2022/10/29 02:56:58;;;;;;;28.40;26.03;;;;;;;14.43;100.00;97361.84;5093270;28;20185;-58
2022/10/29 02:59:23;;;;;;;26.53;24.53;;;;;;;14.42;100.00;97359.47;5091624;28;20171;-59
2022/10/29 03:01:49;;;;;;;27.10;24.43;;;;;;;14.40;100.00;97359.69;5093463;28;20181;-56
2022/10/29 03:04:14;;;;;;;24.17;21.97;;;;;;;14.45;100.00;97353.69;5092713;28;20241;-51
2022/10/29 03:06:40;;;;;;;25.80;23.47;;;;;;;14.45;100.00;97353.69;5092278;28;20200;-57
2022/10/29 03:09:05;;;;;;;26.40;23.93;;;;;;;14.43;100.00;97359.19;5093197;28;20204;-55
2022/10/29 03:11:31;;;;;;;22.07;20.13;;;;;;;14.31;100.00;97357.66;5093039;28;20177;-55
2022/10/29 03:13:56;;;;;;;23.30;21.70;;;;;;;14.32;100.00;97362.66;5093335;28;20172;-56
2022/10/29 03:16:22;;;;;;;20.87;18.83;;;;;;;14.37;100.00;97360.19;5093145;28;20233;-59
2022/10/29 03:18:47;;;;;;;23.93;21.77;;;;;;;14.39;100.00;97362.56;5092814;28;20574;-55
2022/10/29 03:21:12;;;;;;;24.67;22.60;;;;;;;14.45;100.00;97358.97;5092854;28;20314;-55
2022/10/29 03:23:38;;;;;;;22.63;20.80;;;;;;;14.48;100.00;97359.31;5092614;28;20542;-57
2022/10/29 03:26:04;;;;;;;23.80;21.67;;;;;;;14.47;100.00;97362.19;5093326;28;20237;-59
2022/10/29 03:28:29;;;;;;;28.23;25.57;;;;;;;14.51;100.00;97358.03;5093004;28;20211;-58
2022/10/29 03:30:56;;;;;;;29.47;27.27;;;;;;;14.45;100.00;97359.78;5093242;28;20172;-60
2022/10/29 03:33:22;;;;;;;39.53;36.93;;;;;;;14.49;100.00;97363.53;5092436;28;20232;-56
2022/10/29 03:35:48;;;;;;;47.33;43.87;;;;;;;14.48;100.00;97358.53;5092675;28;20287;-59
2022/10/29 03:38:13;;;;;;;52.00;48.33;;;;;;;14.44;100.00;97366.09;5092718;28;20809;-59
2022/10/29 03:40:38;;;;;;;44.57;41.50;;;;;;;14.45;100.00;97365.06;5092742;28;20180;-60
2022/10/29 03:43:04;;;;;;;36.53;33.70;;;;;;;14.39;100.00;97358.09;5092577;28;20625;-58
2022/10/29 03:45:29;;;;;;;30.90;28.33;;;;;;;14.32;100.00;97369.81;5091309;28;20283;-58
2022/10/29 03:47:56;;;;;;;30.10;27.50;;;;;;;14.29;100.00;97363.16;5089555;28;20263;-56
2022/10/29 03:50:21;;;;;;;31.43;29.03;;;;;;;14.32;100.00;97365.31;5091557;28;20264;-56
2022/10/29 03:52:46;;;;;;;29.90;27.80;;;;;;;14.36;100.00;97363.81;5092362;28;20721;-56
2022/10/29 03:55:12;;;;;;;30.23;27.23;;;;;;;14.33;100.00;97358.19;5092397;28;20177;-57
2022/10/29 03:57:37;;;;;;;27.83;25.63;;;;;;;14.39;100.00;97359.91;5092524;28;20212;-57
2022/10/29 04:00:06;;;;;;;29.23;26.60;;;;;;;14.43;100.00;97361.84;5092368;28;20169;-56
2022/10/29 04:02:31;;;;;;;24.17;22.07;;;;;;;14.35;100.00;97361.41;5092262;28;20173;-58
2022/10/29 04:04:57;;;;;;;19.97;18.10;;;;;;;14.41;100.00;97363.13;5091902;28;20560;-57
2022/10/29 04:07:22;;;;;;;34.20;30.47;;;;;;;14.45;100.00;97357.13;5092112;28;20661;-55
2022/10/29 04:09:47;;;;;;;52.33;48.93;;;;;;;14.49;100.00;97350.34;5092370;28;20173;-56
2022/10/29 04:12:13;;;;;;;78.00;72.53;;;;;;;14.47;100.00;97343.72;5092250;28;20200;-54
2022/10/29 04:14:38;;;;;;;89.90;84.30;;;;;;;14.49;100.00;97352.19;5092568;28;20179;-54
2022/10/29 04:17:03;;;;;;;102.73;96.73;;;;;;;14.40;100.00;97361.53;5091643;28;20261;-55
2022/10/29 04:19:29;;;;;;;124.50;116.97;;;;;;;14.50;100.00;97366.97;5092200;28;20172;-56
2022/10/29 04:21:54;;;;;;;110.60;103.90;;;;;;;14.57;100.00;97363.16;5092162;28;20256;-56
2022/10/29 04:24:20;;;;;;;94.60;88.87;;;;;;;14.54;100.00;97362.84;5091507;28;20187;-54
2022/10/29 04:26:45;;;;;;;90.67;85.20;;;;;;;14.47;100.00;97362.19;5091656;28;20260;-54
2022/10/29 04:29:11;;;;;;;97.43;91.70;;;;;;;14.31;100.00;97360.28;5073705;28;20271;-53
2022/10/29 04:31:36;;;;;;;107.97;101.80;;;;;;;14.50;100.00;97367.78;5091715;28;20172;-54
2022/10/29 04:34:02;;;;;;;94.93;89.10;;;;;;;14.42;100.00;97360.25;5091803;28;20181;-55
2022/10/29 04:36:28;;;;;;;52.20;48.70;;;;;;;14.41;100.00;97363.13;5073189;28;20188;-55
2022/10/29 04:38:53;;;;;;;30.77;28.53;;;;;;;14.25;100.00;97363.84;5092089;28;20291;-57
2022/10/29 04:41:19;;;;;;;25.80;23.67;;;;;;;14.23;100.00;97368.56;5091869;28;20208;-57
2022/10/29 04:43:44;;;;;;;27.07;25.17;;;;;;;14.11;100.00;97363.31;5091851;28;20180;-57
2022/10/29 04:46:10;;;;;;;23.77;21.53;;;;;;;14.17;100.00;97354.47;5089884;28;20297;-57
2022/10/29 04:48:35;;;;;;;23.37;21.40;;;;;;;14.20;100.00;97363.75;5091431;28;20238;-57
2022/10/29 04:51:01;;;;;;;23.83;21.90;;;;;;;14.08;100.00;97354.06;5092126;28;20176;-57
2022/10/29 04:53:27;;;;;;;21.50;19.70;;;;;;;13.98;100.00;97351.22;5092026;28;20226;-58
2022/10/29 04:56:00;;;;;;;21.87;19.87;;;;;;;13.95;100.00;97348.25;5092057;28;20617;-54
2022/10/29 04:58:25;;;;;;;20.47;18.70;;;;;;;13.77;100.00;97357.09;5073742;28;20254;-56
2022/10/29 05:00:51;;;;;;;28.17;25.87;;;;;;;13.78;100.00;97348.16;5093788;28;20534;-57
2022/10/29 05:03:16;;;;;;;30.40;28.10;;;;;;;13.68;100.00;97356.69;5094624;28;20271;-58
2022/10/29 05:05:42;;;;;;;30.63;28.33;;;;;;;13.67;100.00;97367.44;5095653;28;20173;-58
2022/10/29 05:08:09;;;;;;;24.03;21.90;;;;;;;13.64;100.00;97360.00;5095387;28;20237;-56
2022/10/29 05:10:36;;;;;;;19.27;17.40;;;;;;;13.68;100.00;97356.69;5095593;28;20180;-58
2022/10/29 05:13:12;;;;;;;15.83;14.33;;;;;;;13.65;100.00;97361.63;5095446;28;20201;-58
2022/10/29 05:15:38;;;;;;;14.67;13.13;;;;;;;13.70;100.00;97351.19;5094821;28;20229;-58
2022/10/29 05:18:05;;;;;;;12.00;11.07;;;;;;;13.61;100.00;97358.63;5095086;28;20207;-55
2022/10/29 05:20:30;;;;;;;13.93;10.40;;;;;;;13.43;100.00;97361.38;5095047;28;20181;-57
2022/10/29 05:23:04;;;;;;;10.90;9.13;;;;;;;13.28;100.00;97358.44;5094504;28;20180;-56
2022/10/29 05:25:31;;;;;;;10.87;9.53;;;;;;;13.36;100.00;97355.47;5095129;28;20290;-58
2022/10/29 05:28:03;;;;;;;15.07;10.47;;;;;;;13.29;100.00;97357.41;5094993;28;20210;-57
2022/10/29 05:30:29;;;;;;;15.00;11.07;;;;;;;13.14;100.00;97360.50;5094987;28;20192;-58
2022/10/29 05:32:55;;;;;;;14.73;10.63;;;;;;;13.13;100.00;97353.63;5094419;28;20189;-58
2022/10/29 05:35:20;;;;;;;11.63;10.10;;;;;;;13.21;100.00;97355.09;5076696;28;20196;-58
2022/10/29 05:37:50;;;;;;;12.67;9.97;;;;;;;13.18;100.00;97356.38;5094971;28;20200;-58
2022/10/29 05:40:16;;;;;;;12.97;10.83;;;;;;;13.25;100.00;97358.91;5095046;28;20185;-54
2022/10/29 05:42:41;;;;;;;11.50;10.33;;;;;;;13.34;100.00;97354.88;5094323;28;20177;-56
2022/10/29 05:45:07;;;;;;;10.63;7.60;;;;;;;13.52;100.00;97356.59;5094391;28;20306;-58
2022/10/29 05:47:33;;;;;;;10.70;8.40;;;;;;;13.61;100.00;97355.19;5092010;28;20327;-57
2022/10/29 05:49:58;;;;;;;12.77;9.10;;;;;;;13.52;100.00;97352.13;5094698;28;20184;-58
2022/10/29 05:52:23;;;;;;;12.17;10.93;;;;;;;13.54;100.00;97350.03;5094442;28;20200;-58
2022/10/29 05:54:49;;;;;;;10.77;9.57;;;;;;;13.39;100.00;97354.19;5095351;28;20176;-58
2022/10/29 05:57:14;;;;;;;13.97;11.43;;;;;;;13.40;100.00;97351.31;5094864;28;20208;-58
2022/10/29 05:59:39;;;;;;;16.00;11.43;;;;;;;13.36;100.00;97355.47;5076418;28;20644;-57
2022/10/29 06:02:05;;;;;;;18.13;12.90;;;;;;;13.42;100.00;97353.75;5094122;28;20196;-54
2022/10/29 06:04:33;;;;;;;14.63;12.43;;;;;;;13.35;100.00;97345.16;5093394;28;20546;-54
2022/10/29 06:06:59;;;;;;;18.37;12.43;;;;;;;13.40;100.00;97356.59;5094247;28;20180;-53
2022/10/29 06:09:25;;;;;;;14.87;11.80;;;;;;;13.48;100.00;97352.81;5093851;28;20207;-58
2022/10/29 06:11:50;;;;;;;12.30;11.07;;;;;;;13.48;100.00;97355.44;5093193;28;20205;-57
2022/10/29 06:14:16;;;;;;;11.20;10.07;;;;;;;13.54;100.00;97371.09;5094215;28;20187;-56
2022/10/29 06:16:41;;;;;;;17.27;12.27;;;;;;;13.43;100.00;97360.63;5093790;28;20265;-57
2022/10/29 06:19:06;;;;;;;15.00;11.77;;;;;;;13.28;100.00;97359.22;5093981;28;20196;-55
2022/10/29 06:21:33;;;;;;;13.70;11.67;;;;;;;13.32;100.00;97359.56;5093427;28;20641;-58
2022/10/29 06:23:58;;;;;;;21.43;11.83;;;;;;;13.23;100.00;97360.94;5089303;28;20191;-58
2022/10/29 06:26:24;;;;;;;13.60;11.60;;;;;;;13.20;100.00;97356.97;5091119;28;20180;-58
2022/10/29 06:28:49;;;;;;;15.07;13.40;;;;;;;13.10;100.00;97369.81;5093415;28;20196;-55
2022/10/29 06:31:15;;;;;;;19.27;12.47;;;;;;;13.14;100.00;97367.59;5093439;28;20180;-55
2022/10/29 06:33:40;;;;;;;13.97;11.97;;;;;;;13.17;100.00;97365.28;5091353;28;20580;-55
2022/10/29 06:36:06;;;;;;;17.80;12.73;;;;;;;13.22;100.00;97372.50;5093713;28;20549;-58
2022/10/29 06:38:31;;;;;;;15.97;11.70;;;;;;;13.23;100.00;97368.84;5093577;28;20212;-57
2022/10/29 06:40:57;;;;;;;14.73;11.83;;;;;;;13.33;100.00;97369.88;5092695;28;20203;-58
2022/10/29 06:43:22;;;;;;;18.17;13.40;;;;;;;13.37;100.00;97372.06;5093476;28;20185;-56
2022/10/29 06:45:49;;;;;;;12.60;11.50;;;;;;;13.25;100.00;97364.16;5090718;28;20594;-58
2022/10/29 06:48:14;;;;;;;19.43;11.87;;;;;;;13.31;100.00;97371.94;5092579;28;20205;-53
2022/10/29 06:50:39;;;;;;;15.50;13.10;;;;;;;13.27;100.00;97370.78;5093132;28;22013;-53
2022/10/29 06:53:08;;;;;;;14.97;13.03;;;;;;;13.37;100.00;97372.88;5093307;28;20193;-51
2022/10/29 06:55:34;;;;;;;16.50;12.60;;;;;;;13.49;100.00;97362.31;5092654;28;20177;-56
2022/10/29 06:58:04;;;;;;;14.73;11.83;;;;;;;13.46;100.00;97368.03;5093065;28;20564;-52
2022/10/29 07:00:30;;;;;;;22.37;12.37;;;;;;;13.57;100.00;97372.50;5093075;28;20614;-51
2022/10/29 07:02:56;;;;;;;15.53;11.53;;;;;;;13.58;100.00;97367.00;5092179;28;20326;-53
2022/10/29 07:05:22;;;;;;;15.33;13.73;;;;;;;13.73;100.00;97369.94;5092817;28;20251;-53
2022/10/29 07:07:48;;;;;;;10.03;8.93;;;;;;;13.85;100.00;97366.50;5093013;28;20204;-52
2022/10/29 07:10:14;;;;;;;13.93;9.20;;;;;;;14.03;100.00;97376.88;5093394;28;20181;-51
2022/10/29 07:12:43;;;;;;;11.93;9.10;;;;;;;14.08;100.00;97369.88;5093118;28;20703;-55
2022/10/29 07:15:09;;;;;;;15.43;13.97;;;;;;;14.23;100.00;97379.91;5092680;28;20176;-63
2022/10/29 07:17:35;;;;;;;22.73;20.60;;;;;;;15.40;100.00;97377.41;5092646;28;20204;-58
2022/10/29 07:20:01;;;;;;;16.67;13.53;;;;;;;16.02;100.00;97372.72;5092931;28;20217;-60
2022/10/29 07:22:26;;;;;;;13.40;12.10;;;;;;;16.38;100.00;97371.28;5092346;28;20161;-61
2022/10/29 07:24:52;;;;;;;15.00;13.53;;;;;;;16.31;100.00;97377.81;5092713;28;20176;-61
2022/10/29 07:27:17;;;;;;;15.33;13.23;;;;;;;16.25;99.91;97379.59;5088965;28;20196;-57
2022/10/29 07:29:45;;;;;;;16.27;13.97;;;;;;;15.70;100.00;97387.66;5088276;28;20195;-58
2022/10/29 07:32:10;;;;;;;11.40;8.23;;;;;;;15.44;100.00;97391.72;5090622;28;20200;-53
2022/10/29 07:34:36;;;;;;;18.73;9.00;;;;;;;15.57;100.00;97388.00;5091527;28;20177;-56
2022/10/29 07:37:01;;;;;;;12.43;9.33;;;;;;;15.28;100.00;97395.19;5089757;28;20204;-55
2022/10/29 07:39:27;;;;;;;11.30;10.10;;;;;;;15.17;100.00;97398.72;5082229;28;20211;-55
2022/10/29 07:41:52;;;;;;;15.17;10.80;;;;;;;15.21;100.00;97395.34;5074053;28;20268;-57
2022/10/29 07:44:18;;;;;;;13.60;12.23;;;;;;;15.24;100.00;97394.88;5083081;28;20293;-52
2022/10/29 07:46:43;;;;;;;12.83;11.53;;;;;;;15.18;100.00;97393.19;5080897;28;20247;-59
2022/10/29 07:49:09;;;;;;;15.63;11.80;;;;;;;15.35;100.00;97404.56;5089398;28;20172;-55
2022/10/29 07:51:34;;;;;;;17.03;15.53;;;;;;;15.50;100.00;97401.34;5090127;28;20198;-53
2022/10/29 07:53:59;;;;;;;20.10;18.37;;;;;;;15.56;100.00;97391.66;5091923;28;20188;-55
2022/10/29 07:56:25;;;;;;;45.17;41.80;;;;;;;15.47;100.00;97407.13;5092245;28;20256;-56
2022/10/29 07:58:50;;;;;;;54.40;50.50;;;;;;;15.60;100.00;97404.19;5071961;28;20296;-55
2022/10/29 08:01:16;;;;;;;58.17;54.37;;;;;;;15.62;100.00;97404.72;5090036;28;20225;-53
2022/10/29 08:03:41;;;;;;;60.07;55.97;;;;;;;15.60;100.00;97398.09;5084379;28;20173;-54
2022/10/29 08:06:07;;;;;;;73.23;68.77;;;;;;;15.83;100.00;97402.38;5091904;28;20607;-56
2022/10/29 08:08:33;;;;;;;70.90;66.23;;;;;;;15.95;100.00;97409.13;5091947;28;20211;-56
2022/10/29 08:11:03;;;;;;;71.53;67.27;;;;;;;16.09;100.00;97405.09;5090413;28;20289;-55
2022/10/29 08:13:29;;;;;;;43.13;40.20;;;;;;;16.19;100.00;97396.47;5091191;28;20245;-55
2022/10/29 08:15:54;;;;;;;20.70;18.77;;;;;;;16.46;99.82;97396.50;5091647;28;20176;-53
2022/10/29 08:18:20;;;;;;;14.60;12.80;;;;;;;16.65;98.57;97403.09;5088379;28;20281;-54
2022/10/29 08:20:45;;;;;;;16.42;10.00;;;;;;;16.94;96.92;97401.75;5089227;28;20653;-56
2022/10/29 08:23:12;;;;;;;29.40;27.00;;;;;;;16.99;96.47;97401.81;5078522;28;20552;-51
2022/10/29 08:25:40;;;;;;;25.70;23.67;;;;;;;17.39;95.54;97401.31;5066209;28;20613;-58
2022/10/29 08:28:07;;;;;;;24.13;22.40;;;;;;;17.61;94.07;97401.22;5081679;28;20201;-59
2022/10/29 08:30:33;;;;;;;14.90;13.43;;;;;;;17.65;93.76;97398.88;5083492;28;20177;-58
2022/10/29 08:32:59;;;;;;;15.98;14.32;;;;;;;17.99;91.47;97397.47;5088262;28;20241;-57
2022/10/29 08:35:24;;;;;;;13.25;11.15;;;;;;;18.15;90.28;97403.63;5092824;28;20161;-58
2022/10/29 08:37:50;;;;;;;72.68;67.75;;;;;;;18.21;90.11;97397.28;5095375;28;20211;-57
2022/10/29 08:40:37;;;;;;;30.67;28.33;;;;;;;18.38;87.41;97397.09;5088989;28;20177;-59
2022/10/29 08:43:31;;;;;;;66.82;62.42;;;;;;;18.49;84.98;97393.41;5088072;28;20271;-60
2022/10/29 08:45:57;;;;;;;210.15;197.57;;;;;;;18.72;83.94;97400.13;5073920;28;20605;-55
2022/10/29 08:48:34;;;;;;;164.38;154.25;;;;;;;18.76;83.51;97401.97;5085356;28;20288;-57
2022/10/29 08:51:19;;;;;;;83.10;78.10;;;;;;;19.00;81.23;97404.94;5086684;28;20173;-58
2022/10/29 08:53:47;;;;;;;104.07;97.32;;;;;;;19.03;80.08;97402.53;5095314;28;20205;-57
2022/10/29 08:56:24;;;;;;;59.53;55.65;;;;;;;19.15;79.44;97396.97;5077440;28;20531;-55
2022/10/29 08:59:07;;;;;;;37.78;34.92;;;;;;;19.09;77.44;97398.81;5088542;28;20208;-55
2022/10/29 09:01:34;;;;;;;84.18;79.07;;;;;;;18.95;77.65;97395.06;5090863;28;20320;-57
2022/10/29 09:04:01;;;;;;;117.65;110.32;;;;;;;18.98;78.19;97394.56;5084576;28;20185;-54
2022/10/29 09:06:57;;;;;;;98.03;91.90;;;;;;;18.84;76.61;97390.03;5088591;28;20306;-52
2022/10/29 09:09:37;;;;;;;137.55;129.18;;;;;;;18.87;77.27;97389.50;5091499;28;20682;-53
2022/10/29 09:12:14;;;;;;;231.32;217.25;;;;;;;18.94;77.16;97396.16;5092093;28;20196;-52
2022/10/29 09:15:10;;;;;;;240.55;225.68;;;;;;;18.95;76.77;97391.63;5094464;28;20247;-50
2022/10/29 09:18:03;;;;;;;97.97;91.57;;;;;;;18.96;74.65;97390.56;5092861;28;20196;-53
2022/10/29 09:20:31;;;;;;;142.73;133.80;;;;;;;18.93;74.90;97396.41;5078302;28;20179;-56
2022/10/29 09:23:13;;;;;;;97.72;91.70;;;;;;;19.00;74.11;97394.31;5094178;28;20171;-55
2022/10/29 09:25:41;;;;;;;100.38;93.65;;;;;;;19.00;74.16;97402.28;5094300;28;20191;-57
2022/10/29 09:28:19;;;;;;;172.68;161.60;;;;;;;19.01;73.80;97395.88;5089763;28;20679;-57
2022/10/29 09:31:06;;;;;;;188.40;176.63;;;;;;;19.10;73.25;97395.09;5086921;28;20196;-57
2022/10/29 09:33:31;;;;;;;255.52;239.70;;;;;;;18.98;73.71;97391.91;5088156;28;20230;-59
2022/10/29 09:35:59;;;;;;;281.50;263.75;;;;;;;19.17;73.08;97392.16;5094190;28;20172;-57
2022/10/29 09:38:29;;;;;;;370.95;347.02;;;;;;;19.10;73.74;97383.69;5093381;28;20569;-58
2022/10/29 09:41:00;;;;;;;186.45;175.88;;;;;;;19.24;75.08;97381.25;5094324;28;20188;-58
2022/10/29 09:43:42;;;;;;;240.43;226.45;;;;;;;19.24;76.37;97389.22;5084226;28;20180;-59
2022/10/29 09:46:30;;;;;;;229.50;216.32;;;;;;;19.33;76.22;97388.44;5083296;28;20257;-59
2022/10/29 09:49:25;;;;;;;214.07;201.65;;;;;;;19.36;74.54;97379.94;5051783;28;20682;-58
2022/10/29 09:52:05;;;;;;;237.32;223.25;;;;;;;19.43;74.94;97383.13;5073447;28;20173;-58
2022/10/29 09:54:31;;;;;;;235.25;221.75;;;;;;;19.43;75.86;97387.63;5073573;28;20256;-58
2022/10/29 09:56:59;;;;;;;255.57;240.70;;;;;;;19.54;75.89;97385.78;5055792;28;20252;-57
2022/10/29 09:59:27;;;;;;;242.13;228.27;;;;;;;19.67;75.54;97385.25;5073717;28;20178;-58
2022/10/29 10:01:53;;;;;;;552.28;514.05;;;;;;;19.65;73.48;97382.84;5071805;28;20201;-58
2022/10/29 10:04:27;;;;;;;606.15;564.53;;;;;;;19.88;72.80;97386.78;5073369;28;20205;-58
2022/10/29 10:07:08;;;;;;;605.00;563.08;;;;;;;19.84;73.65;97386.50;5072794;28;20264;-58
2022/10/29 10:09:53;;;;;;;461.92;433.50;;;;;;;19.92;74.71;97377.97;5073380;28;20172;-55
2022/10/29 10:12:21;;;;;;;260.85;245.38;;;;;;;20.00;76.33;97383.81;5065619;28;20666;-57
2022/10/29 10:14:47;;;;;;;164.75;155.13;;;;;;;20.21;76.71;97380.00;5073552;28;20307;-57
2022/10/29 10:17:13;;;;;;;178.63;168.00;;;;;;;20.05;77.51;97373.94;5048531;28;20696;-55
2022/10/29 10:19:45;;;;;;;146.50;138.05;;;;;;;20.18;77.59;97378.66;5069817;28;20180;-54
2022/10/29 10:22:23;;;;;;;107.75;100.32;;;;;;;20.08;78.52;97370.72;5069515;28;20675;-51
2022/10/29 10:24:48;;;;;;;98.80;92.97;;;;;;;20.19;78.20;97369.59;5070514;28;20200;-54
2022/10/29 10:27:16;;;;;;;57.45;53.75;;;;;;;20.31;78.16;97362.13;5068866;28;20727;-53
2022/10/29 10:29:43;;;;;;;34.08;31.58;;;;;;;20.23;79.28;97367.19;5068357;28;20209;-54
2022/10/29 10:32:15;;;;;;;119.13;112.13;;;;;;;20.28;78.05;97359.97;5053254;28;20193;-56
2022/10/29 10:34:41;;;;;;;187.82;176.68;;;;;;;20.33;77.63;97362.66;5070848;28;20235;-53
2022/10/29 10:37:09;;;;;;;349.05;326.80;;;;;;;20.41;76.81;97360.47;5069672;28;20205;-57
2022/10/29 10:39:38;;;;;;;284.60;267.77;;;;;;;20.51;77.16;97352.41;5068191;28;20591;-56
2022/10/29 10:42:19;;;;;;;254.48;239.68;;;;;;;20.54;77.41;97357.22;5070640;28;20470;-56
2022/10/29 10:44:53;;;;;;;138.63;130.40;;;;;;;20.62;77.49;97353.94;5070885;28;20646;-58
2022/10/29 10:47:22;;;;;;;79.72;74.43;;;;;;;20.66;77.95;97347.00;5075416;28;20266;-57
2022/10/29 10:49:48;;;;;;;252.23;236.75;;;;;;;20.67;76.99;97346.72;5092600;28;20267;-59
2022/10/29 10:52:28;;;;;;;216.35;203.77;;;;;;;20.71;77.29;97342.44;5091434;28;20204;-57
2022/10/29 10:55:02;;;;;;;190.02;177.77;;;;;;;20.80;77.21;97333.84;5093238;28;20219;-55
2022/10/29 10:57:33;;;;;;;458.85;429.58;;;;;;;20.81;76.63;97332.78;5091226;28;20200;-55
2022/10/29 11:00:14;;;;;;;427.10;400.38;;;;;;;20.92;76.92;97331.63;5092932;28;20179;-55
2022/10/29 11:02:51;;;;;;;424.88;398.73;;;;;;;20.89;77.12;97332.19;5089134;28;20180;-56
2022/10/29 11:05:30;;;;;;;583.83;545.53;;;;;;;20.95;76.03;97333.75;5093237;28;20175;-54
2022/10/29 11:08:15;;;;;;;561.47;525.22;;;;;;;21.05;76.65;97331.78;5093152;28;20196;-57
2022/10/29 11:10:57;;;;;;;644.90;601.53;;;;;;;21.06;76.45;97330.72;5092827;28;20211;-57
2022/10/29 11:13:29;;;;;;;640.97;598.10;;;;;;;21.09;76.40;97332.81;5089747;28;20199;-55
2022/10/29 11:16:06;;;;;;;416.50;390.50;;;;;;;21.23;71.92;97330.31;5091365;28;20574;-57
2022/10/29 11:18:38;;;;;;;292.38;273.90;;;;;;;21.30;70.34;97320.09;5084208;28;20196;-54
2022/10/29 11:21:13;;;;;;;253.85;238.45;;;;;;;21.40;69.70;97324.56;5066312;28;20173;-55